Sunday, November 23, 2014, 9:27 PM EST

KLKU, Louisa, Louisa County Airport/freeman Field

Location: Louisa, VA, United States Lat: 38.01
Local Time: 9:27 PM EST ( 2:27 GMT) Lon: -77.97
Time Zone: US/Eastern Elev: 492 ft

Show me the last for .
Show Decoded

2014-11-23 21:15 METAR KLKU 240215Z AUTO 10005KT 5SM +RA OVC008 11/10 A2989 RMK AO2 P0001 =
2014-11-23 20:55 METAR KLKU 240155Z AUTO 10004KT 10SM RA OVC010 11/09 A2991 RMK AO2 =
2014-11-23 20:35 METAR KLKU 240135Z AUTO 12004KT 10SM -RA BKN012 BKN029 OVC035 11/09 A2993 RMK
                 AO2 =
2014-11-23 20:15 METAR KLKU 240115Z AUTO 11004KT 7SM SCT014 BKN020 OVC028 11/09 A2994 RMK AO2 =
2014-11-23 19:55 METAR KLKU 240055Z AUTO 11003KT 10SM RA SCT012 BKN021 OVC026 11/09 A2996 RMK AO2
                 =
2014-11-23 19:35 METAR KLKU 240035Z AUTO 12003KT 10SM SCT014 BKN029 OVC034 11/09 A2997 RMK AO2 =
2014-11-23 19:15 METAR KLKU 240015Z AUTO 12003KT 10SM RA BKN018 OVC036 11/09 A2999 RMK AO2 =
2014-11-23 18:35 METAR KLKU 232335Z AUTO 13005KT 10SM DZ BKN021 BKN032 OVC039 11/09 A3000 RMK AO2
                 =
2014-11-23 18:15 METAR KLKU 232315Z AUTO 12003KT 10SM RA SCT021 BKN029 OVC035 11/09 A3002 RMK AO2
                 =
2014-11-23 17:55 METAR KLKU 232255Z AUTO 00000KT 10SM -RA BKN041 OVC048 11/08 A3002 RMK AO2 =
2014-11-23 17:35 METAR KLKU 232235Z AUTO 12003KT 10SM -DZ SCT031 OVC039 11/09 A3003 RMK AO2 =
2014-11-23 17:15 METAR KLKU 232215Z AUTO 00000KT 10SM DZ BKN033 OVC039 11/08 A3003 RMK AO2 =
2014-11-23 16:55 METAR KLKU 232155Z AUTO 00000KT 10SM -RA OVC042 12/08 A3004 RMK AO2 =
2014-11-23 16:35 METAR KLKU 232135Z AUTO 00000KT 10SM DZ OVC042 12/08 A3005 RMK AO2 =
2014-11-23 16:15 METAR KLKU 232115Z AUTO 00000KT 10SM DZ BKN044 OVC050 13/07 A3006 RMK AO2 =
2014-11-23 15:55 METAR KLKU 232055Z AUTO 16003KT 10SM BKN049 13/07 A3007 RMK AO2 =
2014-11-23 15:35 METAR KLKU 232035Z AUTO 15004KT 10SM SCT049 14/07 A3007 RMK AO2 =
2014-11-23 15:15 METAR KLKU 232015Z AUTO 17004KT 10SM CLR 14/07 A3007 RMK AO2 =
2014-11-23 14:55 METAR KLKU 231955Z AUTO 18003KT 10SM CLR 14/07 A3007 RMK AO2 =
2014-11-23 14:35 METAR KLKU 231935Z AUTO 18004KT 10SM CLR 14/07 A3008 RMK AO2 =
2014-11-23 14:15 METAR KLKU 231915Z AUTO 00000KT 10SM CLR 14/05 A3009 RMK AO2 =
2014-11-23 13:55 METAR KLKU 231855Z AUTO 21004KT 10SM CLR 14/05 A3011 RMK AO2 =
2014-11-23 13:35 METAR KLKU 231835Z AUTO 18006KT 10SM CLR 14/04 A3011 RMK AO2 =
2014-11-23 13:15 METAR KLKU 231815Z AUTO 18004KT 10SM SCT039 14/02 A3012 RMK AO2 =
2014-11-23 12:55 METAR KLKU 231755Z AUTO 17006KT 10SM SCT039 14/01 A3013 RMK AO2 =
2014-11-23 12:35 METAR KLKU 231735Z AUTO 18007KT 160V220 10SM CLR 14/01 A3013 RMK AO2 =
2014-11-23 12:15 METAR KLKU 231715Z AUTO 00000KT 10SM SCT035 14/M01 A3015 RMK AO2 =
2014-11-23 11:35 METAR KLKU 231635Z AUTO 19004KT 10SM SCT035 13/M03 A3018 RMK AO2 =
2014-11-23 11:15 METAR KLKU 231615Z AUTO 20005KT 10SM BKN033 12/M04 A3018 RMK AO2 =
2014-11-23 10:55 METAR KLKU 231555Z AUTO 19003KT 10SM CLR 11/M04 A3020 RMK AO2 =
2014-11-23 10:35 METAR KLKU 231535Z AUTO 18006KT 10SM CLR 09/M04 A3020 RMK AO2 =
2014-11-23 10:15 METAR KLKU 231515Z AUTO 20004KT 10SM CLR 08/M04 A3019 RMK AO2 =
2014-11-23 09:55 METAR KLKU 231455Z AUTO 19005KT 10SM CLR 08/M05 A3019 RMK AO2 =
2014-11-23 09:35 METAR KLKU 231435Z AUTO 18005KT 10SM CLR 07/M04 A3020 RMK AO2 =
2014-11-23 09:15 METAR KLKU 231415Z AUTO 19004KT 10SM CLR 07/M05 A3020 RMK AO2 =
2014-11-23 08:55 METAR KLKU 231355Z AUTO 20004KT 10SM CLR 06/M06 A3020 RMK AO2 =
2014-11-23 08:35 METAR KLKU 231335Z AUTO 19003KT 10SM CLR 06/M06 A3020 RMK AO2 =
2014-11-23 08:15 METAR KLKU 231315Z AUTO 17004KT 10SM CLR 05/M06 A3020 RMK AO2 =
2014-11-23 07:55 METAR KLKU 231255Z AUTO 18003KT 10SM CLR 04/M06 A3019 RMK AO2 =
2014-11-23 07:35 METAR KLKU 231235Z AUTO 17003KT 10SM CLR 04/M06 A3020 RMK AO2 =
2014-11-23 07:15 METAR KLKU 231215Z AUTO 00000KT 10SM CLR 04/M06 A3020 RMK AO2 =
2014-11-23 06:55 METAR KLKU 231155Z AUTO 20003KT 10SM CLR 04/M07 A3020 RMK AO2 =
2014-11-23 06:35 METAR KLKU 231135Z AUTO 18003KT 10SM CLR 04/M07 A3020 RMK AO2 =
2014-11-23 06:15 METAR KLKU 231115Z AUTO 19004KT 10SM CLR 04/M07 A3020 RMK AO2 =
2014-11-23 05:55 METAR KLKU 231055Z AUTO 19003KT 10SM CLR 04/M07 A3021 RMK AO2 =
2014-11-23 05:15 METAR KLKU 231015Z AUTO 00000KT 10SM CLR 03/M07 A3020 RMK AO2 =
2014-11-23 04:55 METAR KLKU 230955Z AUTO 20003KT 10SM CLR 04/M07 A3020 RMK AO2 =
2014-11-23 04:35 METAR KLKU 230935Z AUTO 20005KT 10SM CLR 04/M07 A3020 RMK AO2 =
2014-11-23 04:15 METAR KLKU 230915Z AUTO 20005KT 10SM CLR 04/M07 A3020 RMK AO2 =
2014-11-23 03:55 METAR KLKU 230855Z AUTO 19005KT 10SM SCT110 04/M07 A3020 RMK AO2 =
2014-11-23 03:35 METAR KLKU 230835Z AUTO 21006KT 10SM SCT110 04/M08 A3022 RMK AO2 =
2014-11-23 03:15 METAR KLKU 230815Z AUTO 19006KT 10SM CLR 04/M08 A3022 RMK AO2 =
2014-11-23 02:55 METAR KLKU 230755Z AUTO 20003KT 10SM CLR 04/M08 A3022 RMK AO2 =
2014-11-23 02:35 METAR KLKU 230735Z AUTO 21004KT 10SM CLR 04/M08 A3023 RMK AO2 =
2014-11-23 02:15 METAR KLKU 230715Z AUTO 21004KT 10SM CLR 04/M08 A3023 RMK AO2 =
2014-11-23 01:55 METAR KLKU 230655Z AUTO 20004KT 10SM CLR 05/M08 A3023 RMK AO2 =
2014-11-23 01:35 METAR KLKU 230635Z AUTO 22003KT 10SM CLR 05/M08 A3023 RMK AO2 =
2014-11-23 01:15 METAR KLKU 230615Z AUTO 22004KT 10SM CLR 05/M08 A3023 RMK AO2 =
2014-11-23 00:55 METAR KLKU 230555Z AUTO 21004KT 10SM CLR 05/M08 A3024 RMK AO2 =
2014-11-23 00:35 METAR KLKU 230535Z AUTO 22004KT 10SM CLR 04/M08 A3024 RMK AO2 =
2014-11-23 00:15 METAR KLKU 230515Z AUTO 19005KT 10SM CLR 05/M08 A3025 RMK AO2 =
2014-11-22 23:55 METAR KLKU 230455Z AUTO 20005KT 10SM CLR 05/M08 A3026 RMK AO2 =
2014-11-22 23:35 METAR KLKU 230435Z AUTO 21004KT 10SM CLR 04/M08 A3026 RMK AO2 =
2014-11-22 23:15 METAR KLKU 230415Z AUTO 19003KT 10SM CLR 04/M08 A3026 RMK AO2 =
2014-11-22 22:55 METAR KLKU 230355Z AUTO 19005KT 10SM CLR 05/M08 A3026 RMK AO2 =
2014-11-22 22:35 METAR KLKU 230335Z AUTO 19004KT 10SM CLR 05/M08 A3026 RMK AO2 =
2014-11-22 22:15 METAR KLKU 230315Z AUTO 21003KT 10SM CLR 04/M08 A3028 RMK AO2 =
2014-11-22 21:55 METAR KLKU 230255Z AUTO 21003KT 10SM CLR 04/M08 A3028 RMK AO2 =
2014-11-22 21:35 METAR KLKU 230235Z AUTO 20004KT 10SM CLR 04/M08 A3029 RMK AO2 =

Support USWX by starting your Amazon purchase here.